sensor_id;sensor_type;location;lat;lon;timestamp;P1;durP1;ratioP1;P2;durP2;ratioP2
31966;SDS011;18496;52.042;6.812;2023-12-07T00:01:56;26.80;;;15.05;;
31966;SDS011;18496;52.042;6.812;2023-12-07T00:04:00;29.00;;;14.48;;
31966;SDS011;18496;52.042;6.812;2023-12-07T00:06:04;27.90;;;15.30;;
31966;SDS011;18496;52.042;6.812;2023-12-07T00:08:09;33.47;;;15.50;;
31966;SDS011;18496;52.042;6.812;2023-12-07T00:10:14;30.45;;;15.88;;
31966;SDS011;18496;52.042;6.812;2023-12-07T00:12:18;34.25;;;15.82;;
31966;SDS011;18496;52.042;6.812;2023-12-07T00:14:21;30.88;;;15.05;;
31966;SDS011;18496;52.042;6.812;2023-12-07T00:16:25;32.00;;;16.98;;
31966;SDS011;18496;52.042;6.812;2023-12-07T00:18:29;30.48;;;15.93;;
31966;SDS011;18496;52.042;6.812;2023-12-07T00:20:33;29.27;;;15.30;;
31966;SDS011;18496;52.042;6.812;2023-12-07T00:22:37;36.95;;;15.73;;
31966;SDS011;18496;52.042;6.812;2023-12-07T00:24:41;34.20;;;15.25;;
31966;SDS011;18496;52.042;6.812;2023-12-07T00:26:44;35.80;;;16.00;;
31966;SDS011;18496;52.042;6.812;2023-12-07T00:28:48;27.55;;;15.07;;
31966;SDS011;18496;52.042;6.812;2023-12-07T00:30:52;30.13;;;15.90;;
31966;SDS011;18496;52.042;6.812;2023-12-07T00:32:56;34.75;;;16.23;;
31966;SDS011;18496;52.042;6.812;2023-12-07T00:35:00;32.47;;;14.57;;
31966;SDS011;18496;52.042;6.812;2023-12-07T00:37:03;29.00;;;15.50;;
31966;SDS011;18496;52.042;6.812;2023-12-07T00:39:07;32.85;;;15.77;;
31966;SDS011;18496;52.042;6.812;2023-12-07T00:41:12;32.03;;;15.90;;
31966;SDS011;18496;52.042;6.812;2023-12-07T00:43:15;33.35;;;15.73;;
31966;SDS011;18496;52.042;6.812;2023-12-07T00:45:20;33.40;;;16.13;;
31966;SDS011;18496;52.042;6.812;2023-12-07T00:47:24;27.15;;;14.48;;
31966;SDS011;18496;52.042;6.812;2023-12-07T00:49:27;35.33;;;16.00;;
31966;SDS011;18496;52.042;6.812;2023-12-07T00:51:31;31.10;;;14.95;;
31966;SDS011;18496;52.042;6.812;2023-12-07T00:53:35;30.90;;;15.13;;
31966;SDS011;18496;52.042;6.812;2023-12-07T00:55:39;35.33;;;15.60;;
31966;SDS011;18496;52.042;6.812;2023-12-07T00:57:43;30.15;;;15.18;;
31966;SDS011;18496;52.042;6.812;2023-12-07T00:59:47;31.40;;;15.43;;
31966;SDS011;18496;52.042;6.812;2023-12-07T01:01:50;35.05;;;15.70;;
31966;SDS011;18496;52.042;6.812;2023-12-07T01:03:54;31.15;;;15.85;;
31966;SDS011;18496;52.042;6.812;2023-12-07T01:05:58;30.25;;;15.23;;
31966;SDS011;18496;52.042;6.812;2023-12-07T01:08:02;28.52;;;13.73;;
31966;SDS011;18496;52.042;6.812;2023-12-07T01:10:06;26.02;;;13.85;;
31966;SDS011;18496;52.042;6.812;2023-12-07T01:12:10;29.92;;;15.02;;
31966;SDS011;18496;52.042;6.812;2023-12-07T01:14:14;32.50;;;15.57;;
31966;SDS011;18496;52.042;6.812;2023-12-07T01:16:18;38.05;;;13.55;;
31966;SDS011;18496;52.042;6.812;2023-12-07T01:18:22;26.10;;;14.20;;
31966;SDS011;18496;52.042;6.812;2023-12-07T01:20:26;29.67;;;14.77;;
31966;SDS011;18496;52.042;6.812;2023-12-07T01:22:29;26.45;;;13.95;;
31966;SDS011;18496;52.042;6.812;2023-12-07T01:24:33;31.33;;;14.32;;
31966;SDS011;18496;52.042;6.812;2023-12-07T01:26:37;27.25;;;13.63;;
31966;SDS011;18496;52.042;6.812;2023-12-07T01:28:41;29.33;;;14.07;;
31966;SDS011;18496;52.042;6.812;2023-12-07T01:30:44;24.08;;;13.40;;
31966;SDS011;18496;52.042;6.812;2023-12-07T01:32:48;24.88;;;13.52;;
31966;SDS011;18496;52.042;6.812;2023-12-07T01:34:52;22.05;;;12.27;;
31966;SDS011;18496;52.042;6.812;2023-12-07T01:36:56;29.80;;;14.32;;
31966;SDS011;18496;52.042;6.812;2023-12-07T01:38:59;27.42;;;13.50;;
31966;SDS011;18496;52.042;6.812;2023-12-07T01:41:03;32.17;;;15.18;;
31966;SDS011;18496;52.042;6.812;2023-12-07T01:43:07;26.55;;;14.75;;
31966;SDS011;18496;52.042;6.812;2023-12-07T01:45:11;28.00;;;15.30;;
31966;SDS011;18496;52.042;6.812;2023-12-07T01:47:14;30.45;;;14.52;;
31966;SDS011;18496;52.042;6.812;2023-12-07T01:49:18;28.48;;;14.43;;
31966;SDS011;18496;52.042;6.812;2023-12-07T01:51:22;28.60;;;14.80;;
31966;SDS011;18496;52.042;6.812;2023-12-07T01:53:26;29.08;;;14.57;;
31966;SDS011;18496;52.042;6.812;2023-12-07T01:55:31;29.77;;;14.88;;
31966;SDS011;18496;52.042;6.812;2023-12-07T01:57:36;26.95;;;14.35;;
31966;SDS011;18496;52.042;6.812;2023-12-07T01:59:40;24.98;;;13.38;;
31966;SDS011;18496;52.042;6.812;2023-12-07T02:01:44;25.77;;;13.77;;
31966;SDS011;18496;52.042;6.812;2023-12-07T02:03:48;27.10;;;14.00;;
31966;SDS011;18496;52.042;6.812;2023-12-07T02:05:52;21.25;;;12.18;;
31966;SDS011;18496;52.042;6.812;2023-12-07T02:07:56;28.50;;;14.25;;
31966;SDS011;18496;52.042;6.812;2023-12-07T02:10:00;21.45;;;13.20;;
31966;SDS011;18496;52.042;6.812;2023-12-07T02:12:03;26.20;;;13.73;;
31966;SDS011;18496;52.042;6.812;2023-12-07T02:14:07;24.05;;;13.52;;
31966;SDS011;18496;52.042;6.812;2023-12-07T02:16:13;25.02;;;13.93;;
31966;SDS011;18496;52.042;6.812;2023-12-07T02:18:33;21.48;;;12.63;;
31966;SDS011;18496;52.042;6.812;2023-12-07T02:21:27;24.40;;;12.73;;
31966;SDS011;18496;52.042;6.812;2023-12-07T02:23:10;25.23;;;13.07;;
31966;SDS011;18496;52.042;6.812;2023-12-07T02:25:19;23.95;;;13.48;;
31966;SDS011;18496;52.042;6.812;2023-12-07T02:27:34;25.83;;;13.18;;
31966;SDS011;18496;52.042;6.812;2023-12-07T02:29:45;24.30;;;12.63;;
31966;SDS011;18496;52.042;6.812;2023-12-07T02:31:49;28.98;;;12.85;;
31966;SDS011;18496;52.042;6.812;2023-12-07T02:33:53;22.75;;;12.80;;
31966;SDS011;18496;52.042;6.812;2023-12-07T02:35:57;21.75;;;13.25;;
31966;SDS011;18496;52.042;6.812;2023-12-07T02:38:01;27.10;;;12.70;;
31966;SDS011;18496;52.042;6.812;2023-12-07T02:40:06;25.88;;;13.00;;
31966;SDS011;18496;52.042;6.812;2023-12-07T02:42:13;26.02;;;12.95;;
31966;SDS011;18496;52.042;6.812;2023-12-07T02:44:18;26.08;;;13.88;;
31966;SDS011;18496;52.042;6.812;2023-12-07T02:46:22;21.63;;;11.80;;
31966;SDS011;18496;52.042;6.812;2023-12-07T02:48:26;21.23;;;12.02;;
31966;SDS011;18496;52.042;6.812;2023-12-07T02:50:32;25.55;;;13.20;;
31966;SDS011;18496;52.042;6.812;2023-12-07T02:52:36;25.63;;;12.55;;
31966;SDS011;18496;52.042;6.812;2023-12-07T02:54:40;27.92;;;13.27;;
31966;SDS011;18496;52.042;6.812;2023-12-07T02:56:44;23.38;;;11.93;;
31966;SDS011;18496;52.042;6.812;2023-12-07T02:58:47;24.73;;;13.70;;
31966;SDS011;18496;52.042;6.812;2023-12-07T03:00:51;25.15;;;12.88;;
31966;SDS011;18496;52.042;6.812;2023-12-07T03:02:55;25.52;;;14.50;;
31966;SDS011;18496;52.042;6.812;2023-12-07T03:04:59;24.95;;;12.98;;
31966;SDS011;18496;52.042;6.812;2023-12-07T03:07:03;28.40;;;14.68;;
31966;SDS011;18496;52.042;6.812;2023-12-07T03:09:06;27.23;;;13.70;;
31966;SDS011;18496;52.042;6.812;2023-12-07T03:11:10;23.95;;;12.65;;
31966;SDS011;18496;52.042;6.812;2023-12-07T03:13:14;26.95;;;13.68;;
31966;SDS011;18496;52.042;6.812;2023-12-07T03:15:18;24.40;;;13.30;;
31966;SDS011;18496;52.042;6.812;2023-12-07T03:17:22;26.35;;;12.98;;
31966;SDS011;18496;52.042;6.812;2023-12-07T03:19:26;31.13;;;14.27;;
31966;SDS011;18496;52.042;6.812;2023-12-07T03:21:29;26.20;;;13.57;;
31966;SDS011;18496;52.042;6.812;2023-12-07T03:23:33;24.75;;;13.75;;
31966;SDS011;18496;52.042;6.812;2023-12-07T03:25:37;34.42;;;14.48;;
31966;SDS011;18496;52.042;6.812;2023-12-07T03:27:41;29.20;;;15.02;;
31966;SDS011;18496;52.042;6.812;2023-12-07T03:29:45;28.90;;;13.98;;
31966;SDS011;18496;52.042;6.812;2023-12-07T03:31:49;30.40;;;15.18;;
31966;SDS011;18496;52.042;6.812;2023-12-07T03:33:53;31.10;;;14.43;;
31966;SDS011;18496;52.042;6.812;2023-12-07T03:35:57;31.30;;;14.82;;
31966;SDS011;18496;52.042;6.812;2023-12-07T03:38:01;29.40;;;14.13;;
31966;SDS011;18496;52.042;6.812;2023-12-07T03:40:05;29.58;;;14.80;;
31966;SDS011;18496;52.042;6.812;2023-12-07T03:42:10;34.42;;;15.18;;
31966;SDS011;18496;52.042;6.812;2023-12-07T03:44:14;31.20;;;15.90;;
31966;SDS011;18496;52.042;6.812;2023-12-07T03:46:18;32.13;;;15.68;;
31966;SDS011;18496;52.042;6.812;2023-12-07T03:48:22;36.85;;;16.55;;
31966;SDS011;18496;52.042;6.812;2023-12-07T03:50:25;37.78;;;16.45;;
31966;SDS011;18496;52.042;6.812;2023-12-07T03:52:29;29.75;;;14.80;;
31966;SDS011;18496;52.042;6.812;2023-12-07T03:54:33;36.35;;;16.75;;
31966;SDS011;18496;52.042;6.812;2023-12-07T03:56:37;45.78;;;17.33;;
31966;SDS011;18496;52.042;6.812;2023-12-07T03:58:40;62.58;;;17.13;;
31966;SDS011;18496;52.042;6.812;2023-12-07T04:00:44;75.30;;;18.27;;
31966;SDS011;18496;52.042;6.812;2023-12-07T04:02:48;35.75;;;15.50;;
31966;SDS011;18496;52.042;6.812;2023-12-07T04:04:52;47.33;;;16.45;;
31966;SDS011;18496;52.042;6.812;2023-12-07T04:06:56;40.88;;;16.48;;
31966;SDS011;18496;52.042;6.812;2023-12-07T04:09:00;58.72;;;17.10;;
31966;SDS011;18496;52.042;6.812;2023-12-07T04:11:04;30.40;;;15.07;;
31966;SDS011;18496;52.042;6.812;2023-12-07T04:13:07;46.35;;;17.48;;
31966;SDS011;18496;52.042;6.812;2023-12-07T04:15:11;49.92;;;14.85;;
31966;SDS011;18496;52.042;6.812;2023-12-07T04:17:15;33.55;;;14.13;;
31966;SDS011;18496;52.042;6.812;2023-12-07T04:19:19;47.97;;;15.50;;
31966;SDS011;18496;52.042;6.812;2023-12-07T04:21:23;33.28;;;14.45;;
31966;SDS011;18496;52.042;6.812;2023-12-07T04:23:26;38.42;;;15.10;;
31966;SDS011;18496;52.042;6.812;2023-12-07T04:25:30;25.88;;;13.98;;
31966;SDS011;18496;52.042;6.812;2023-12-07T04:27:34;46.90;;;16.50;;
31966;SDS011;18496;52.042;6.812;2023-12-07T04:29:38;35.20;;;14.68;;
31966;SDS011;18496;52.042;6.812;2023-12-07T04:31:42;35.55;;;15.20;;
31966;SDS011;18496;52.042;6.812;2023-12-07T04:33:45;26.95;;;14.25;;
31966;SDS011;18496;52.042;6.812;2023-12-07T04:35:49;32.58;;;14.27;;
31966;SDS011;18496;52.042;6.812;2023-12-07T04:37:53;26.38;;;14.38;;
31966;SDS011;18496;52.042;6.812;2023-12-07T04:39:57;26.20;;;13.90;;
31966;SDS011;18496;52.042;6.812;2023-12-07T04:42:01;31.48;;;14.93;;
31966;SDS011;18496;52.042;6.812;2023-12-07T04:44:05;25.02;;;14.45;;
31966;SDS011;18496;52.042;6.812;2023-12-07T04:46:09;26.42;;;14.63;;
31966;SDS011;18496;52.042;6.812;2023-12-07T04:48:13;43.85;;;15.00;;
31966;SDS011;18496;52.042;6.812;2023-12-07T04:50:16;37.08;;;14.10;;
31966;SDS011;18496;52.042;6.812;2023-12-07T04:52:20;27.73;;;14.05;;
31966;SDS011;18496;52.042;6.812;2023-12-07T04:54:24;46.00;;;15.48;;
31966;SDS011;18496;52.042;6.812;2023-12-07T04:56:27;48.97;;;15.63;;
31966;SDS011;18496;52.042;6.812;2023-12-07T04:58:31;47.25;;;15.85;;
31966;SDS011;18496;52.042;6.812;2023-12-07T05:00:35;31.75;;;14.75;;
31966;SDS011;18496;52.042;6.812;2023-12-07T05:02:39;31.98;;;15.23;;
31966;SDS011;18496;52.042;6.812;2023-12-07T05:04:43;38.75;;;14.80;;
31966;SDS011;18496;52.042;6.812;2023-12-07T05:06:48;56.50;;;15.60;;
31966;SDS011;18496;52.042;6.812;2023-12-07T05:08:51;41.38;;;15.77;;
31966;SDS011;18496;52.042;6.812;2023-12-07T05:10:55;29.20;;;15.65;;
31966;SDS011;18496;52.042;6.812;2023-12-07T05:12:59;104.35;;;16.40;;
31966;SDS011;18496;52.042;6.812;2023-12-07T05:15:03;81.90;;;17.40;;
31966;SDS011;18496;52.042;6.812;2023-12-07T05:17:08;52.45;;;16.10;;
31966;SDS011;18496;52.042;6.812;2023-12-07T05:19:12;58.85;;;16.30;;
31966;SDS011;18496;52.042;6.812;2023-12-07T05:21:16;80.57;;;16.50;;
31966;SDS011;18496;52.042;6.812;2023-12-07T05:23:20;38.35;;;16.77;;
31966;SDS011;18496;52.042;6.812;2023-12-07T05:25:23;69.05;;;17.67;;
31966;SDS011;18496;52.042;6.812;2023-12-07T05:27:27;33.80;;;15.57;;
31966;SDS011;18496;52.042;6.812;2023-12-07T05:29:31;55.22;;;15.93;;
31966;SDS011;18496;52.042;6.812;2023-12-07T05:31:34;43.55;;;15.27;;
31966;SDS011;18496;52.042;6.812;2023-12-07T05:33:39;74.25;;;17.90;;
31966;SDS011;18496;52.042;6.812;2023-12-07T05:35:42;45.83;;;16.42;;
31966;SDS011;18496;52.042;6.812;2023-12-07T05:37:46;70.65;;;17.20;;
31966;SDS011;18496;52.042;6.812;2023-12-07T05:39:50;39.58;;;16.40;;
31966;SDS011;18496;52.042;6.812;2023-12-07T05:41:53;45.50;;;16.52;;
31966;SDS011;18496;52.042;6.812;2023-12-07T05:43:57;37.78;;;15.50;;
31966;SDS011;18496;52.042;6.812;2023-12-07T05:46:01;31.17;;;15.57;;
31966;SDS011;18496;52.042;6.812;2023-12-07T05:48:04;33.78;;;14.77;;
31966;SDS011;18496;52.042;6.812;2023-12-07T05:50:08;39.00;;;16.75;;
31966;SDS011;18496;52.042;6.812;2023-12-07T05:52:12;33.15;;;15.55;;
31966;SDS011;18496;52.042;6.812;2023-12-07T05:54:16;36.85;;;16.15;;
31966;SDS011;18496;52.042;6.812;2023-12-07T05:56:20;34.85;;;15.95;;
31966;SDS011;18496;52.042;6.812;2023-12-07T05:58:24;46.53;;;16.80;;
31966;SDS011;18496;52.042;6.812;2023-12-07T06:00:28;30.73;;;15.82;;
31966;SDS011;18496;52.042;6.812;2023-12-07T06:02:31;30.17;;;15.45;;
31966;SDS011;18496;52.042;6.812;2023-12-07T06:04:36;66.22;;;17.25;;
31966;SDS011;18496;52.042;6.812;2023-12-07T06:06:39;29.33;;;15.93;;
31966;SDS011;18496;52.042;6.812;2023-12-07T06:08:43;35.80;;;16.80;;
31966;SDS011;18496;52.042;6.812;2023-12-07T06:10:47;50.88;;;16.30;;
31966;SDS011;18496;52.042;6.812;2023-12-07T06:12:51;86.25;;;20.50;;
31966;SDS011;18496;52.042;6.812;2023-12-07T06:14:55;57.45;;;18.70;;
31966;SDS011;18496;52.042;6.812;2023-12-07T06:16:59;41.70;;;19.65;;
31966;SDS011;18496;52.042;6.812;2023-12-07T06:19:03;43.17;;;18.98;;
31966;SDS011;18496;52.042;6.812;2023-12-07T06:21:07;55.97;;;20.73;;
31966;SDS011;18496;52.042;6.812;2023-12-07T06:23:11;47.70;;;19.65;;
31966;SDS011;18496;52.042;6.812;2023-12-07T06:25:17;67.25;;;19.75;;
31966;SDS011;18496;52.042;6.812;2023-12-07T06:27:21;59.60;;;20.67;;
31966;SDS011;18496;52.042;6.812;2023-12-07T06:29:24;67.70;;;22.08;;
31966;SDS011;18496;52.042;6.812;2023-12-07T06:31:28;52.25;;;21.77;;
31966;SDS011;18496;52.042;6.812;2023-12-07T06:33:32;67.32;;;25.40;;
31966;SDS011;18496;52.042;6.812;2023-12-07T06:35:36;46.83;;;21.42;;
31966;SDS011;18496;52.042;6.812;2023-12-07T06:37:40;56.72;;;23.27;;
31966;SDS011;18496;52.042;6.812;2023-12-07T06:39:44;85.82;;;24.80;;
31966;SDS011;18496;52.042;6.812;2023-12-07T06:41:49;122.80;;;26.73;;
31966;SDS011;18496;52.042;6.812;2023-12-07T06:43:52;133.73;;;30.70;;
31966;SDS011;18496;52.042;6.812;2023-12-07T06:45:57;153.20;;;30.88;;
31966;SDS011;18496;52.042;6.812;2023-12-07T06:48:00;115.10;;;29.25;;
31966;SDS011;18496;52.042;6.812;2023-12-07T06:50:05;108.40;;;29.65;;
31966;SDS011;18496;52.042;6.812;2023-12-07T06:52:16;102.28;;;26.83;;
31966;SDS011;18496;52.042;6.812;2023-12-07T06:54:19;84.88;;;25.60;;
31966;SDS011;18496;52.042;6.812;2023-12-07T06:56:23;180.38;;;35.58;;
31966;SDS011;18496;52.042;6.812;2023-12-07T06:58:27;172.05;;;35.47;;
31966;SDS011;18496;52.042;6.812;2023-12-07T07:00:31;103.97;;;29.85;;
31966;SDS011;18496;52.042;6.812;2023-12-07T07:02:39;101.35;;;30.33;;
31966;SDS011;18496;52.042;6.812;2023-12-07T07:04:42;143.18;;;30.70;;
31966;SDS011;18496;52.042;6.812;2023-12-07T07:06:47;118.80;;;30.00;;
31966;SDS011;18496;52.042;6.812;2023-12-07T07:08:51;137.63;;;32.50;;
31966;SDS011;18496;52.042;6.812;2023-12-07T07:10:55;140.38;;;30.25;;
31966;SDS011;18496;52.042;6.812;2023-12-07T07:13:00;141.63;;;34.45;;
31966;SDS011;18496;52.042;6.812;2023-12-07T07:15:07;103.22;;;30.23;;
31966;SDS011;18496;52.042;6.812;2023-12-07T07:17:12;93.40;;;30.65;;
31966;SDS011;18496;52.042;6.812;2023-12-07T07:19:15;115.05;;;31.40;;
31966;SDS011;18496;52.042;6.812;2023-12-07T07:21:20;114.90;;;33.38;;
31966;SDS011;18496;52.042;6.812;2023-12-07T07:23:23;120.60;;;33.67;;
31966;SDS011;18496;52.042;6.812;2023-12-07T07:25:27;114.00;;;32.63;;
31966;SDS011;18496;52.042;6.812;2023-12-07T07:27:31;140.35;;;33.78;;
31966;SDS011;18496;52.042;6.812;2023-12-07T07:29:35;154.95;;;38.50;;
31966;SDS011;18496;52.042;6.812;2023-12-07T07:31:38;110.28;;;34.88;;
31966;SDS011;18496;52.042;6.812;2023-12-07T07:33:42;119.13;;;32.75;;
31966;SDS011;18496;52.042;6.812;2023-12-07T07:35:46;142.90;;;35.85;;
31966;SDS011;18496;52.042;6.812;2023-12-07T07:37:50;131.38;;;33.78;;
31966;SDS011;18496;52.042;6.812;2023-12-07T07:39:54;149.45;;;34.47;;
31966;SDS011;18496;52.042;6.812;2023-12-07T07:41:58;139.65;;;33.22;;
31966;SDS011;18496;52.042;6.812;2023-12-07T07:44:03;103.15;;;32.35;;
31966;SDS011;18496;52.042;6.812;2023-12-07T07:46:07;115.22;;;33.72;;
31966;SDS011;18496;52.042;6.812;2023-12-07T07:48:11;105.00;;;31.17;;
31966;SDS011;18496;52.042;6.812;2023-12-07T07:50:15;134.75;;;33.75;;
31966;SDS011;18496;52.042;6.812;2023-12-07T07:52:20;216.73;;;38.50;;
31966;SDS011;18496;52.042;6.812;2023-12-07T07:54:24;157.32;;;38.97;;
31966;SDS011;18496;52.042;6.812;2023-12-07T07:56:28;140.98;;;35.78;;
31966;SDS011;18496;52.042;6.812;2023-12-07T07:58:32;120.28;;;35.33;;
31966;SDS011;18496;52.042;6.812;2023-12-07T08:00:36;192.88;;;41.33;;
31966;SDS011;18496;52.042;6.812;2023-12-07T08:02:40;183.20;;;37.78;;
31966;SDS011;18496;52.042;6.812;2023-12-07T08:04:44;160.27;;;38.08;;
31966;SDS011;18496;52.042;6.812;2023-12-07T08:06:48;109.60;;;38.30;;
31966;SDS011;18496;52.042;6.812;2023-12-07T08:08:51;156.18;;;38.58;;
31966;SDS011;18496;52.042;6.812;2023-12-07T08:10:55;132.75;;;39.05;;
31966;SDS011;18496;52.042;6.812;2023-12-07T08:12:59;168.77;;;40.10;;
31966;SDS011;18496;52.042;6.812;2023-12-07T08:15:03;194.43;;;46.67;;
31966;SDS011;18496;52.042;6.812;2023-12-07T08:17:08;137.00;;;41.97;;
31966;SDS011;18496;52.042;6.812;2023-12-07T08:19:12;187.70;;;46.00;;
31966;SDS011;18496;52.042;6.812;2023-12-07T08:21:22;251.55;;;48.22;;
31966;SDS011;18496;52.042;6.812;2023-12-07T08:23:27;258.92;;;49.60;;
31966;SDS011;18496;52.042;6.812;2023-12-07T08:25:31;239.85;;;46.50;;
31966;SDS011;18496;52.042;6.812;2023-12-07T08:27:36;210.57;;;45.42;;
31966;SDS011;18496;52.042;6.812;2023-12-07T08:29:41;223.57;;;44.25;;
31966;SDS011;18496;52.042;6.812;2023-12-07T08:31:44;205.00;;;42.47;;
31966;SDS011;18496;52.042;6.812;2023-12-07T08:36:12;165.20;;;40.63;;
31966;SDS011;18496;52.042;6.812;2023-12-07T08:38:16;254.80;;;45.53;;
31966;SDS011;18496;52.042;6.812;2023-12-07T08:40:20;223.02;;;44.80;;
31966;SDS011;18496;52.042;6.812;2023-12-07T08:42:23;177.93;;;42.85;;
31966;SDS011;18496;52.042;6.812;2023-12-07T08:44:29;211.93;;;43.75;;
31966;SDS011;18496;52.042;6.812;2023-12-07T08:46:33;193.88;;;43.38;;
31966;SDS011;18496;52.042;6.812;2023-12-07T08:48:37;247.15;;;44.53;;
31966;SDS011;18496;52.042;6.812;2023-12-07T08:50:41;252.35;;;45.25;;
31966;SDS011;18496;52.042;6.812;2023-12-07T08:52:45;226.95;;;44.95;;
31966;SDS011;18496;52.042;6.812;2023-12-07T08:54:49;208.77;;;42.75;;
31966;SDS011;18496;52.042;6.812;2023-12-07T08:56:52;188.25;;;40.92;;
31966;SDS011;18496;52.042;6.812;2023-12-07T08:58:56;202.15;;;40.65;;
31966;SDS011;18496;52.042;6.812;2023-12-07T09:01:00;210.52;;;42.70;;
31966;SDS011;18496;52.042;6.812;2023-12-07T09:03:04;195.52;;;40.25;;
31966;SDS011;18496;52.042;6.812;2023-12-07T09:05:08;192.50;;;41.42;;
31966;SDS011;18496;52.042;6.812;2023-12-07T09:07:12;179.57;;;39.92;;
31966;SDS011;18496;52.042;6.812;2023-12-07T09:09:19;165.43;;;39.22;;
31966;SDS011;18496;52.042;6.812;2023-12-07T09:11:23;179.70;;;40.83;;
31966;SDS011;18496;52.042;6.812;2023-12-07T09:13:27;140.30;;;36.38;;
31966;SDS011;18496;52.042;6.812;2023-12-07T09:15:31;153.48;;;37.78;;
31966;SDS011;18496;52.042;6.812;2023-12-07T09:17:35;180.40;;;39.42;;
31966;SDS011;18496;52.042;6.812;2023-12-07T09:19:40;197.75;;;40.40;;
31966;SDS011;18496;52.042;6.812;2023-12-07T09:21:44;177.43;;;36.50;;
31966;SDS011;18496;52.042;6.812;2023-12-07T09:23:48;129.55;;;35.35;;
31966;SDS011;18496;52.042;6.812;2023-12-07T09:25:51;210.80;;;38.60;;
31966;SDS011;18496;52.042;6.812;2023-12-07T09:27:55;155.50;;;37.72;;
31966;SDS011;18496;52.042;6.812;2023-12-07T09:29:59;153.40;;;35.90;;
31966;SDS011;18496;52.042;6.812;2023-12-07T09:32:04;219.13;;;40.35;;
31966;SDS011;18496;52.042;6.812;2023-12-07T09:34:09;188.27;;;39.03;;
31966;SDS011;18496;52.042;6.812;2023-12-07T09:36:16;194.35;;;39.03;;
31966;SDS011;18496;52.042;6.812;2023-12-07T09:38:21;155.52;;;39.58;;
31966;SDS011;18496;52.042;6.812;2023-12-07T09:40:25;180.95;;;37.55;;
31966;SDS011;18496;52.042;6.812;2023-12-07T09:42:30;191.55;;;39.15;;
31966;SDS011;18496;52.042;6.812;2023-12-07T09:44:34;198.75;;;38.95;;
31966;SDS011;18496;52.042;6.812;2023-12-07T09:46:38;188.48;;;39.72;;
31966;SDS011;18496;52.042;6.812;2023-12-07T09:48:43;200.82;;;36.95;;
31966;SDS011;18496;52.042;6.812;2023-12-07T09:50:48;149.43;;;38.17;;
31966;SDS011;18496;52.042;6.812;2023-12-07T09:52:52;174.57;;;38.17;;
31966;SDS011;18496;52.042;6.812;2023-12-07T09:55:00;181.30;;;37.88;;
31966;SDS011;18496;52.042;6.812;2023-12-07T09:57:06;156.10;;;38.05;;
31966;SDS011;18496;52.042;6.812;2023-12-07T09:59:12;163.77;;;39.55;;
31966;SDS011;18496;52.042;6.812;2023-12-07T10:01:16;137.70;;;38.03;;
31966;SDS011;18496;52.042;6.812;2023-12-07T10:03:20;156.10;;;37.70;;
31966;SDS011;18496;52.042;6.812;2023-12-07T10:05:25;133.85;;;37.83;;
31966;SDS011;18496;52.042;6.812;2023-12-07T10:07:33;140.65;;;39.83;;
31966;SDS011;18496;52.042;6.812;2023-12-07T10:11:44;152.20;;;37.33;;
31966;SDS011;18496;52.042;6.812;2023-12-07T10:13:49;140.27;;;38.03;;
31966;SDS011;18496;52.042;6.812;2023-12-07T10:16:04;129.68;;;39.22;;
31966;SDS011;18496;52.042;6.812;2023-12-07T10:20:26;131.80;;;34.17;;
31966;SDS011;18496;52.042;6.812;2023-12-07T10:22:31;138.05;;;37.28;;
31966;SDS011;18496;52.042;6.812;2023-12-07T10:24:35;157.25;;;40.15;;
31966;SDS011;18496;52.042;6.812;2023-12-07T10:26:39;135.82;;;37.88;;
31966;SDS011;18496;52.042;6.812;2023-12-07T10:28:43;127.03;;;35.22;;
31966;SDS011;18496;52.042;6.812;2023-12-07T10:30:47;116.03;;;34.22;;
31966;SDS011;18496;52.042;6.812;2023-12-07T10:32:51;112.40;;;33.50;;
31966;SDS011;18496;52.042;6.812;2023-12-07T10:34:55;113.10;;;35.00;;
31966;SDS011;18496;52.042;6.812;2023-12-07T10:37:01;120.90;;;35.22;;
31966;SDS011;18496;52.042;6.812;2023-12-07T10:39:07;101.57;;;30.75;;
31966;SDS011;18496;52.042;6.812;2023-12-07T10:41:11;113.03;;;34.25;;
31966;SDS011;18496;52.042;6.812;2023-12-07T10:43:16;119.68;;;35.53;;
31966;SDS011;18496;52.042;6.812;2023-12-07T10:45:24;109.05;;;33.78;;
31966;SDS011;18496;52.042;6.812;2023-12-07T10:47:28;106.70;;;31.27;;
31966;SDS011;18496;52.042;6.812;2023-12-07T10:49:32;107.45;;;31.92;;
31966;SDS011;18496;52.042;6.812;2023-12-07T10:52:12;109.47;;;35.13;;
31966;SDS011;18496;52.042;6.812;2023-12-07T10:54:10;97.97;;;33.03;;
31966;SDS011;18496;52.042;6.812;2023-12-07T10:56:24;112.50;;;31.95;;
31966;SDS011;18496;52.042;6.812;2023-12-07T10:58:33;111.95;;;34.15;;
31966;SDS011;18496;52.042;6.812;2023-12-07T11:00:40;101.15;;;34.35;;
31966;SDS011;18496;52.042;6.812;2023-12-07T11:02:50;94.65;;;31.52;;
31966;SDS011;18496;52.042;6.812;2023-12-07T11:04:58;83.72;;;30.33;;
31966;SDS011;18496;52.042;6.812;2023-12-07T11:07:05;103.85;;;34.10;;
31966;SDS011;18496;52.042;6.812;2023-12-07T11:09:15;104.80;;;32.45;;
31966;SDS011;18496;52.042;6.812;2023-12-07T11:11:31;93.55;;;32.75;;
31966;SDS011;18496;52.042;6.812;2023-12-07T11:13:46;111.22;;;32.05;;
31966;SDS011;18496;52.042;6.812;2023-12-07T11:15:57;96.68;;;31.55;;
31966;SDS011;18496;52.042;6.812;2023-12-07T11:18:01;94.43;;;32.40;;
31966;SDS011;18496;52.042;6.812;2023-12-07T11:20:06;107.93;;;33.97;;
31966;SDS011;18496;52.042;6.812;2023-12-07T11:22:11;84.55;;;33.03;;
31966;SDS011;18496;52.042;6.812;2023-12-07T11:24:16;87.25;;;33.20;;
31966;SDS011;18496;52.042;6.812;2023-12-07T11:26:22;95.63;;;33.80;;
31966;SDS011;18496;52.042;6.812;2023-12-07T11:28:36;105.78;;;34.22;;
31966;SDS011;18496;52.042;6.812;2023-12-07T11:30:43;86.75;;;33.63;;
31966;SDS011;18496;52.042;6.812;2023-12-07T11:32:48;90.68;;;32.03;;
31966;SDS011;18496;52.042;6.812;2023-12-07T11:34:52;99.15;;;34.58;;
31966;SDS011;18496;52.042;6.812;2023-12-07T11:36:55;83.10;;;32.15;;
31966;SDS011;18496;52.042;6.812;2023-12-07T11:41:06;89.88;;;32.95;;
31966;SDS011;18496;52.042;6.812;2023-12-07T11:43:16;84.28;;;32.38;;
31966;SDS011;18496;52.042;6.812;2023-12-07T11:46:03;75.88;;;30.35;;
31966;SDS011;18496;52.042;6.812;2023-12-07T11:48:06;84.05;;;29.98;;
31966;SDS011;18496;52.042;6.812;2023-12-07T11:50:14;73.07;;;29.55;;
31966;SDS011;18496;52.042;6.812;2023-12-07T11:52:18;73.25;;;29.10;;
31966;SDS011;18496;52.042;6.812;2023-12-07T11:54:41;73.05;;;28.73;;
31966;SDS011;18496;52.042;6.812;2023-12-07T12:00:41;72.07;;;29.98;;
31966;SDS011;18496;52.042;6.812;2023-12-07T12:03:19;69.13;;;29.23;;
31966;SDS011;18496;52.042;6.812;2023-12-07T12:05:23;76.78;;;30.25;;
31966;SDS011;18496;52.042;6.812;2023-12-07T12:07:27;73.80;;;30.25;;
31966;SDS011;18496;52.042;6.812;2023-12-07T12:09:31;73.10;;;28.83;;
31966;SDS011;18496;52.042;6.812;2023-12-07T12:11:37;74.53;;;28.85;;
31966;SDS011;18496;52.042;6.812;2023-12-07T12:13:44;64.78;;;27.08;;
31966;SDS011;18496;52.042;6.812;2023-12-07T12:15:50;67.68;;;27.98;;
31966;SDS011;18496;52.042;6.812;2023-12-07T12:17:55;68.32;;;27.23;;
31966;SDS011;18496;52.042;6.812;2023-12-07T12:20:02;66.93;;;28.95;;